Kaolack, Kaolack Airport (GOOK)

NameKaolack Airport
CityKaolack
CountrySenegal
ICAOGOOK
IATAKLC
Altitude8 m
CoordinatesGoogle Map
Live Air TrafficLiveATC.net
METARGOOK 152200Z 28008KT CAVOK 30/20 Q1012
2019-06-15 22:00:00 Wind: West (280°) 4.12 m/s - Visibility: > 10000 m - Weather: CAVOK - Temperature: 30 °C - Dew point: 20 °C - Humidity: 55% - Pressure: 1012 hPa

Sorry, no flights used the airport in this database.